Buoy 32912

sailwx.info

Track history (hours):
 
Tides and Currents Weather Stations Pressure Air Temp Water Temp Dewpoint Dewpoint Depression Visibility Wind Speed Wind Dir Waves Ship Positions

Drifting buoy 32912

Last reported at 2018-Jun-19 05:45 UTC. Time now 2018-Jun-19 06:47 UTC.
Position S 31°50' W 101°20'.

Water temperature 19.5 ° C

Date/timePositionNaut miles runAvg speedWind from/ knotsBaromVisibWave heightAir tempDewpointWater temp
2018-Jun-19 05:45S 31°50' W 101°20'0 0.0 19.5
2018-Jun-19 04:45S 31°50' W 101°20'0 0.0 19.5
2018-Jun-19 04:15S 31°50' W 101°20'0 0.0 19.5
2018-Jun-19 04:00S 31°50' W 101°20'1 2.0 19.5
2018-Jun-19 03:45S 31°50' W 101°19'1 4.1 19.6
2018-Jun-19 03:30S 31°50' W 101°18'1 3.1 19.5
2018-Jun-19 03:15S 31°49' W 101°19'1 3.1 19.6
2018-Jun-19 03:00S 31°50' W 101°19'1 1.0 19.5
2018-Jun-19 02:00S 31°50' W 101°18'0 0.0 19.6
2018-Jun-19 01:45S 31°50' W 101°18'1 0.8 19.6
2018-Jun-19 01:00S 31°50' W 101°18'0 0.0 19.6
2018-Jun-19 00:45S 31°50' W 101°18'0 0.0 19.6
2018-Jun-18 23:30S 31°50' W 101°18'1 3.1 19.6
2018-Jun-18 23:15S 31°50' W 101°17'1 3.1 19.6
2018-Jun-18 23:00S 31°50' W 101°18'1 0.6 19.6
2018-Jun-18 21:45S 31°50' W 101°17'0 0.0 19.6
2018-Jun-18 21:30S 31°50' W 101°17'4 0.9 19.6
2018-Jun-18 17:30S 31°52' W 101°14'0 0.0 19.7
2018-Jun-18 15:45S 31°52' W 101°14'0 0.0 19.7
2018-Jun-18 15:15S 31°52' W 101°14'0 0.0 19.7
2018-Jun-18 15:00S 31°52' W 101°14'1 2.4 19.7
2018-Jun-18 14:45S 31°52' W 101°14'1 0.5 19.7
2018-Jun-18 13:45S 31°52' W 101°14'1 4.7 19.7
2018-Jun-18 13:30S 31°52' W 101°13'0 0.0 19.7
2018-Jun-18 13:15S 31°52' W 101°13'2 1.3 19.7
2018-Jun-18 12:00S 31°53' W 101°12'1 2.4 19.7
2018-Jun-18 11:45S 31°52' W 101°12'1 0.8 19.8
2018-Jun-18 11:00S 31°53' W 101°12'0 0.0 19.8
2018-Jun-18 10:45S 31°53' W 101°12'1 0.3 19.8
2018-Jun-18 06:00S 31°54' W 101°12'0 0.0 19.8
2018-Jun-18 05:15S 31°54' W 101°12'0 0.0 19.8
2018-Jun-18 05:00S 31°54' W 101°12'0 0.0 19.8
2018-Jun-18 04:30S 31°54' W 101°12'0 0.0 19.8
2018-Jun-18 04:15S 31°54' W 101°12'1 1.0 19.8
2018-Jun-18 03:45S 31°54' W 101°11'1 5.2 19.8
2018-Jun-18 03:30S 31°53' W 101°11'2 6.3 19.8
2018-Jun-18 03:15S 31°54' W 101°12'1 1.0 19.8
2018-Jun-18 02:45S 31°54' W 101°11'0 0.0 19.8
2018-Jun-18 02:15S 31°54' W 101°11'1 2.0 19.8
2018-Jun-18 02:00S 31°54' W 101°12'0 0.0 19.8
2018-Jun-18 01:30S 31°54' W 101°12'0 0.0 19.8
2018-Jun-18 01:15S 31°54' W 101°12'0 0.0 19.8
2018-Jun-18 00:45S 31°54' W 101°12'0 0.0 19.8
2018-Jun-18 00:30S 31°54' W 101°12'1 1.4 19.8
2018-Jun-17 23:45S 31°54' W 101°11'1 4.1 19.9
2018-Jun-17 23:30S 31°54' W 101°12'0 0.0 19.8
2018-Jun-17 23:15S 31°54' W 101°12'0 0.0 19.8
2018-Jun-17 22:00S 31°54' W 101°12'310.2 19.9
2018-Jun-17 21:45S 31°54' W 101°09'0 0.0 19.9
2018-Jun-17 16:45S 31°54' W 101°09'0 0.0 19.8
2018-Jun-17 16:15S 31°54' W 101°09'0 0.0 19.9
2018-Jun-17 16:00S 31°54' W 101°09'1 1.0 19.8
2018-Jun-17 15:30S 31°54' W 101°10'0 0.0 19.8
2018-Jun-17 15:15S 31°54' W 101°10'0 0.0 19.8
2018-Jun-17 15:00S 31°54' W 101°10'1 1.0 19.8
2018-Jun-17 14:15S 31°55' W 101°09'0 0.0 19.9
2018-Jun-17 14:00S 31°55' W 101°09'1 3.1 19.9
2018-Jun-17 13:45S 31°54' W 101°10'0 0.0 19.8
2018-Jun-17 13:30S 31°54' W 101°10'1 1.2 19.8
2018-Jun-17 12:30S 31°55' W 101°08'0 0.0 19.8
2018-Jun-17 12:15S 31°55' W 101°08'0 0.0 19.9
2018-Jun-17 11:15S 31°55' W 101°08'0 0.0 19.9
2018-Jun-17 11:00S 31°55' W 101°08'0 0.0 19.9
2018-Jun-17 09:30S 31°55' W 101°08'0 0.0 19.9
2018-Jun-17 09:15S 31°55' W 101°08'0 0.0 19.9
2018-Jun-17 04:45S 31°55' W 101°08'1 0.7 20.0
2018-Jun-17 04:00S 31°55' W 101°09'1 4.7 20.0
2018-Jun-17 03:45S 31°54' W 101°08'0 0.0 20.0
2018-Jun-17 03:15S 31°54' W 101°08'0 0.0 20.0
2018-Jun-17 03:00S 31°54' W 101°08'0 0.0 20.0
2018-Jun-17 02:45S 31°54' W 101°08'0 0.0 20.0
2018-Jun-17 02:30S 31°54' W 101°08'0 0.0 20.0
2018-Jun-17 02:15S 31°54' W 101°08'0 0.0 20.0
2018-Jun-17 02:00S 31°54' W 101°08'0 0.0 20.0
2018-Jun-17 01:45S 31°54' W 101°08'0 0.0 20.0
2018-Jun-17 01:00S 31°54' W 101°08'0 0.0 20.0
2018-Jun-17 00:45S 31°54' W 101°08'1 1.0 20.0
2018-Jun-17 00:15S 31°54' W 101°07'0 0.0 20.0
2018-Jun-16 23:45S 31°54' W 101°07'0 0.0 20.0
2018-Jun-16 23:30S 31°54' W 101°07'1 0.7 20.0
2018-Jun-16 22:45S 31°54' W 101°07'0 0.0 20.0
2018-Jun-16 22:30S 31°54' W 101°07'1 2.4 20.0
2018-Jun-16 22:00S 31°55' W 101°05'0 0.0 20.0
2018-Jun-16 17:15S 31°55' W 101°05'0 0.0 20.1
2018-Jun-16 17:00S 31°55' W 101°05'1 1.0 20.0
2018-Jun-16 16:30S 31°55' W 101°05'0 0.0 20.1
2018-Jun-16 16:15S 31°55' W 101°05'1 0.5 20.0
2018-Jun-16 14:45S 31°55' W 101°05'0 0.0 20.0
2018-Jun-16 14:15S 31°55' W 101°05'2 4.1 20.0
2018-Jun-16 13:45S 31°53' W 101°07'0 0.0 20.0
2018-Jun-16 13:00S 31°53' W 101°07'0 0.0 20.0
2018-Jun-16 12:45S 31°53' W 101°07'0 0.0 20.0
2018-Jun-16 12:30S 31°53' W 101°07'1 1.0 20.0
2018-Jun-16 11:30S 31°53' W 101°05'0 0.0 20.0
2018-Jun-16 11:15S 31°53' W 101°05'1 4.1 20.0
2018-Jun-16 11:00S 31°53' W 101°07'0 0.0 20.0
2018-Jun-16 09:45S 31°53' W 101°07'0 0.0 20.0
2018-Jun-16 09:30S 31°53' W 101°07'1 0.3 20.0
2018-Jun-16 05:45S 31°53' W 101°05'0 0.0 20.0
2018-Jun-16 05:15S 31°53' W 101°05'0 0.0 20.0
2018-Jun-16 05:00S 31°53' W 101°05'1 1.4 20.0
2018-Jun-16 04:15S 31°53' W 101°07'1 2.0 20.0
2018-Jun-16 04:00S 31°53' W 101°06'0 0.0 20.0
2018-Jun-16 03:30S 31°53' W 101°06'1 2.0 20.0
2018-Jun-16 03:15S 31°53' W 101°07'0 0.0 20.0
2018-Jun-16 03:00S 31°53' W 101°07'0 0.0 20.0
2018-Jun-16 02:30S 31°53' W 101°07'0 0.0 20.0
2018-Jun-16 02:15S 31°53' W 101°07'0 0.0 20.0
2018-Jun-16 01:30S 31°53' W 101°07'0 0.0 20.0
2018-Jun-16 01:15S 31°53' W 101°07'1 1.0 20.0
2018-Jun-16 00:45S 31°53' W 101°06'0 0.0 20.0
2018-Jun-16 00:00S 31°53' W 101°06'1 2.0 20.0
2018-Jun-15 23:45S 31°53' W 101°07'0 0.0 20.1
2018-Jun-15 23:15S 31°53' W 101°07'0 0.0 20.1
2018-Jun-15 23:00S 31°53' W 101°07'0 0.0 20.1
2018-Jun-15 22:15S 31°53' W 101°07'1 2.0 20.1
2018-Jun-15 22:00S 31°53' W 101°07'1 0.1 20.1
2018-Jun-15 16:45S 31°53' W 101°07'2 2.1 20.0
2018-Jun-15 15:45S 31°52' W 101°09'0 0.0 20.0
2018-Jun-15 15:15S 31°52' W 101°09'0 0.0 20.0
2018-Jun-15 15:00S 31°52' W 101°09'1 1.0 20.0
2018-Jun-15 14:15S 31°53' W 101°10'0 0.0 20.0
2018-Jun-15 14:00S 31°53' W 101°10'0 0.0 20.0
2018-Jun-15 13:45S 31°53' W 101°10'0 0.0 20.0
2018-Jun-15 13:30S 31°53' W 101°10'1 2.4 20.0
2018-Jun-15 13:00S 31°52' W 101°08'0 0.0 20.0
2018-Jun-15 12:30S 31°52' W 101°08'0 0.0 20.0
2018-Jun-15 12:15S 31°52' W 101°08'1 2.0 20.0
2018-Jun-15 12:00S 31°52' W 101°09'0 0.0 20.0
2018-Jun-15 11:45S 31°52' W 101°09'0 0.0 20.0
2018-Jun-15 11:30S 31°52' W 101°09'0 0.0 20.0
2018-Jun-15 11:15S 31°52' W 101°09'1 0.5 20.0
2018-Jun-15 09:45S 31°52' W 101°10'1 0.1 20.0
2018-Jun-15 06:15S 31°52' W 101°09'0 0.0 20.0
2018-Jun-15 06:00S 31°52' W 101°09'0 0.0 20.0
2018-Jun-15 05:30S 31°52' W 101°09'1 0.5 20.0
2018-Jun-15 04:30S 31°52' W 101°10'0 0.0 20.0
2018-Jun-15 04:15S 31°52' W 101°10'1 2.0 20.0
2018-Jun-15 04:00S 31°52' W 101°10'0 0.0 20.0
2018-Jun-15 03:45S 31°52' W 101°10'1 2.0 20.0
2018-Jun-15 03:30S 31°52' W 101°10'0 0.0 20.0
2018-Jun-15 02:45S 31°52' W 101°10'0 0.0 20.0
2018-Jun-15 02:30S 31°52' W 101°10'1 1.0 20.0
2018-Jun-15 02:00S 31°52' W 101°10'0 0.0 20.0
2018-Jun-15 01:45S 31°52' W 101°10'0 0.0 20.0
2018-Jun-15 01:15S 31°52' W 101°10'0 0.0 20.0
2018-Jun-15 00:15S 31°52' W 101°10'0 0.0 20.0
2018-Jun-15 00:00S 31°52' W 101°10'1 4.7 20.0
2018-Jun-14 23:45S 31°51' W 101°11'0 0.0 20.0
2018-Jun-14 23:30S 31°51' W 101°11'0 0.0 20.0
2018-Jun-14 22:30S 31°51' W 101°11'1 2.0 20.0
2018-Jun-14 22:15S 31°51' W 101°12'0 0.0 20.0
2018-Jun-14 17:15S 31°51' W 101°12'0 0.0 19.9
2018-Jun-14 17:00S 31°51' W 101°12'0 0.0 19.9
2018-Jun-14 16:15S 31°51' W 101°12'0 0.0 19.9
2018-Jun-14 16:00S 31°51' W 101°12'0 0.0 19.9
2018-Jun-14 15:30S 31°51' W 101°12'0 0.0 19.9
2018-Jun-14 15:15S 31°51' W 101°12'0 0.0 19.9
2018-Jun-14 14:15S 31°51' W 101°12'0 0.0 19.9
2018-Jun-14 14:00S 31°51' W 101°12'0 0.0 19.9
2018-Jun-14 13:30S 31°51' W 101°12'0 0.0 19.9
2018-Jun-14 13:15S 31°51' W 101°12'1 1.0 19.9
2018-Jun-14 12:30S 31°50' W 101°11'0 0.0 19.9
2018-Jun-14 12:15S 31°50' W 101°11'1 4.7 19.9
2018-Jun-14 12:00S 31°51' W 101°13'1 2.0 19.9
2018-Jun-14 11:45S 31°51' W 101°12'0 0.0 19.9
2018-Jun-14 11:30S 31°51' W 101°12'1 0.8 19.9
2018-Jun-14 10:00S 31°50' W 101°13'1 2.4 19.9
2018-Jun-14 09:45S 31°50' W 101°13'1 0.2 19.9
2018-Jun-14 05:45S 31°50' W 101°14'0 0.0 20.0
2018-Jun-14 05:00S 31°50' W 101°14'0 0.0 20.0
2018-Jun-14 04:45S 31°50' W 101°14'1 2.4 20.0
2018-Jun-14 04:30S 31°50' W 101°14'0 0.0 20.0
2018-Jun-14 04:15S 31°50' W 101°14'0 0.0 20.0
2018-Jun-14 04:00S 31°50' W 101°14'0 0.0 20.0
2018-Jun-14 03:15S 31°50' W 101°14'0 0.0 20.0
2018-Jun-14 03:00S 31°50' W 101°14'0 0.0 20.0
2018-Jun-14 02:45S 31°50' W 101°14'0 0.0 20.0
2018-Jun-14 02:15S 31°50' W 101°14'0 0.0 20.0
2018-Jun-14 01:45S 31°50' W 101°14'0 0.0 20.0
2018-Jun-14 01:15S 31°50' W 101°14'1 0.7 20.0
2018-Jun-14 00:30S 31°50' W 101°14'1 2.0 20.0
2018-Jun-14 00:15S 31°50' W 101°14'0 0.0 20.0
2018-Jun-14 00:00S 31°50' W 101°14'0 0.0 20.0
2018-Jun-13 22:45S 31°50' W 101°14'2 7.8 20.0
2018-Jun-13 22:30S 31°49' W 101°16'1 0.2 20.0
2018-Jun-13 17:30S 31°49' W 101°17'0 0.0 19.9
2018-Jun-13 15:45S 31°49' W 101°17'3 3.5 19.9
2018-Jun-13 15:00S 31°49' W 101°14'0 0.0 19.9
2018-Jun-13 14:30S 31°49' W 101°14'0 0.0 19.9
2018-Jun-13 14:15S 31°49' W 101°14'0 0.0 19.9
2018-Jun-13 14:00S 31°49' W 101°14'0 0.0 19.9
2018-Jun-13 13:45S 31°49' W 101°14'2 2.8 19.9
2018-Jun-13 13:00S 31°49' W 101°16'0 0.0 19.9
2018-Jun-13 12:45S 31°49' W 101°16'0 0.0 19.9
2018-Jun-13 12:15S 31°49' W 101°16'0 0.0 19.9
2018-Jun-13 11:45S 31°49' W 101°16'0 0.0 19.9
2018-Jun-13 11:15S 31°49' W 101°16'0 0.0 19.9
2018-Jun-13 10:15S 31°49' W 101°16'0 0.0 19.9
2018-Jun-13 10:00S 31°49' W 101°16'0 0.0 19.9
2018-Jun-13 08:30S 31°49' W 101°16'0 0.0 19.9
2018-Jun-13 06:15S 31°49' W 101°16'0 0.0 19.9
2018-Jun-13 06:00S 31°49' W 101°16'0 0.0 19.9
2018-Jun-13 05:15S 31°49' W 101°16'2 6.6 19.9
2018-Jun-13 05:00S 31°48' W 101°14'1 2.0 19.9
2018-Jun-13 04:45S 31°48' W 101°15'0 0.0 19.9
2018-Jun-13 04:30S 31°48' W 101°15'0 0.0 19.9
2018-Jun-13 03:30S 31°48' W 101°15'0 0.0 19.9
2018-Jun-13 03:15S 31°48' W 101°15'0 0.0 19.9
2018-Jun-13 02:45S 31°48' W 101°15'0 0.0 19.9
2018-Jun-13 02:30S 31°48' W 101°15'0 0.0 19.9
2018-Jun-13 01:00S 31°48' W 101°15'1 4.1 19.9
2018-Jun-13 00:45S 31°48' W 101°16'1 3.1 19.9
2018-Jun-13 00:30S 31°49' W 101°16'0 0.0 19.9
2018-Jun-13 00:15S 31°49' W 101°16'1 0.6 19.9
2018-Jun-12 23:00S 31°48' W 101°16'2 9.4 20.0
2018-Jun-12 22:45S 31°46' W 101°18'0 0.0 19.9
2018-Jun-12 17:00S 31°46' W 101°18'2 6.6 19.9
2018-Jun-12 16:45S 31°47' W 101°16'0 0.0 19.9
2018-Jun-12 16:15S 31°47' W 101°16'0 0.0 19.9
2018-Jun-12 16:00S 31°47' W 101°16'0 0.0 19.9
2018-Jun-12 15:15S 31°47' W 101°16'0 0.0 19.9
2018-Jun-12 15:00S 31°47' W 101°16'0 0.0 19.9
2018-Jun-12 14:45S 31°47' W 101°16'1 2.0 19.9
2018-Jun-12 14:30S 31°47' W 101°17'0 0.0 19.9
2018-Jun-12 14:15S 31°47' W 101°17'1 1.0 19.9
2018-Jun-12 13:30S 31°47' W 101°17'0 0.0 19.9
2018-Jun-12 13:15S 31°47' W 101°17'1 4.7 19.9
2018-Jun-12 13:00S 31°47' W 101°16'1 4.1 19.9
2018-Jun-12 12:45S 31°47' W 101°17'0 0.0 19.9
2018-Jun-12 12:30S 31°47' W 101°17'2 2.4 19.9
2018-Jun-12 11:45S 31°45' W 101°17'0 0.0 19.9
2018-Jun-12 11:00S 31°45' W 101°17'0 0.0 19.9
2018-Jun-12 10:30S 31°45' W 101°17'0 0.0 19.9
2018-Jun-12 10:15S 31°45' W 101°17'0 0.0 19.9
2018-Jun-12 08:45S 31°45' W 101°17'1 0.3 19.8
2018-Jun-12 05:30S 31°45' W 101°16'0 0.0 19.8
2018-Jun-12 05:00S 31°45' W 101°16'0 0.0 19.8
2018-Jun-12 04:45S 31°45' W 101°16'1 0.7 19.8
2018-Jun-12 04:00S 31°45' W 101°16'0 0.0 19.8
2018-Jun-12 03:45S 31°45' W 101°16'0 0.0 19.8
2018-Jun-12 03:15S 31°45' W 101°16'1 3.2 19.8
2018-Jun-12 03:00S 31°44' W 101°16'0 0.0 19.8
2018-Jun-12 01:30S 31°44' W 101°16'1 3.2 19.8
2018-Jun-12 01:15S 31°44' W 101°17'0 0.0 19.8
2018-Jun-12 01:00S 31°44' W 101°17'0 0.0 19.8
2018-Jun-12 00:45S 31°44' W 101°17'0 0.0 19.8
2018-Jun-12 00:30S 31°44' W 101°17'0 0.0 19.8
2018-Jun-11 23:30S 31°44' W 101°17'0 0.0 19.8
2018-Jun-11 23:00S 31°44' W 101°17'2 1.0 19.8
2018-Jun-11 21:15S 31°42' W 101°17'0 0.0 19.8
2018-Jun-11 17:15S 31°42' W 101°17'0 0.0 19.8
2018-Jun-11 17:00S 31°42' W 101°17'0 0.0 19.8
2018-Jun-11 16:30S 31°42' W 101°17'1 3.2 19.8
2018-Jun-11 16:15S 31°41' W 101°17'0 0.0 19.8
2018-Jun-11 15:00S 31°41' W 101°17'0 0.0 19.8
2018-Jun-11 14:45S 31°41' W 101°17'1 1.6 19.8
2018-Jun-11 14:00S 31°42' W 101°19'0 0.0 19.8
2018-Jun-11 13:45S 31°42' W 101°19'2 3.9 19.8
2018-Jun-11 13:15S 31°41' W 101°17'0 0.0 19.8
2018-Jun-11 13:00S 31°41' W 101°17'2 4.1 19.8
2018-Jun-11 12:30S 31°41' W 101°14'0 0.0 19.8
2018-Jun-11 12:15S 31°41' W 101°14'2 0.5 19.8
2018-Jun-11 09:00S 31°40' W 101°16'0 0.0 19.8
2018-Jun-11 08:45S 31°40' W 101°16'2 0.6 19.8
2018-Jun-11 06:00S 31°39' W 101°15'0 0.0 19.8
2018-Jun-11 05:45S 31°39' W 101°15'0 0.0 19.8
2018-Jun-11 05:15S 31°39' W 101°15'0 0.0 19.8
2018-Jun-11 05:00S 31°39' W 101°15'0 0.0 19.8
2018-Jun-11 04:15S 31°39' W 101°15'0 0.0 19.8
2018-Jun-11 04:00S 31°39' W 101°15'0 0.0 19.8
2018-Jun-11 03:30S 31°39' W 101°15'0 0.0 19.8
2018-Jun-11 03:15S 31°39' W 101°15'1 0.8 19.8
2018-Jun-11 02:30S 31°38' W 101°15'0 0.0 19.8
2018-Jun-11 02:00S 31°38' W 101°15'2 7.8 19.8
2018-Jun-11 01:45S 31°37' W 101°13'0 0.0 19.8
2018-Jun-11 01:30S 31°37' W 101°13'0 0.0 19.8
2018-Jun-11 00:45S 31°37' W 101°13'0 0.0 19.8
2018-Jun-11 00:00S 31°37' W 101°13'0 0.0 19.8
2018-Jun-10 23:15S 31°37' W 101°13'2 8.3 19.8
2018-Jun-10 23:00S 31°35' W 101°12'0 0.0 19.8
2018-Jun-10 22:30S 31°35' W 101°12'0 0.0 19.8
2018-Jun-10 22:15S 31°35' W 101°12'0 0.0 19.8
2018-Jun-10 21:30S 31°35' W 101°12'0 0.0 19.8
2018-Jun-10 17:00S 31°35' W 101°12'0 0.0 19.8
2018-Jun-10 16:45S 31°35' W 101°12'0 0.0 19.8
2018-Jun-10 16:00S 31°35' W 101°12'0 0.0 19.8
2018-Jun-10 15:45S 31°35' W 101°12'0 0.0 19.8
2018-Jun-10 15:15S 31°35' W 101°12'0 0.0 19.8
2018-Jun-10 15:00S 31°35' W 101°12'1 1.6 19.8
2018-Jun-10 14:30S 31°35' W 101°11'0 0.0 19.8
2018-Jun-10 14:15S 31°35' W 101°11'0 0.0 19.8
2018-Jun-10 14:00S 31°35' W 101°11'0 0.0 19.8
2018-Jun-10 13:30S 31°35' W 101°11'0 0.0 19.8
2018-Jun-10 13:15S 31°35' W 101°11'1 2.0 19.8
2018-Jun-10 13:00S 31°35' W 101°11'0 0.0 19.8
2018-Jun-10 12:45S 31°35' W 101°11'0 0.0 19.8
2018-Jun-10 11:45S 31°35' W 101°11'0 0.0 19.8
2018-Jun-10 11:15S 31°35' W 101°11'0 0.0 19.8
2018-Jun-10 10:45S 31°35' W 101°11'0 0.0 19.8
2018-Jun-10 10:30S 31°35' W 101°11'2 1.1 19.8
2018-Jun-10 09:00S 31°34' W 101°10'0 0.0 19.8
2018-Jun-10 05:30S 31°34' W 101°10'0 0.0 19.8
2018-Jun-10 04:45S 31°34' W 101°10'0 0.0 19.8
2018-Jun-10 04:30S 31°34' W 101°10'0 0.0 19.8
2018-Jun-10 04:00S 31°34' W 101°10'1 3.2 19.8
2018-Jun-10 03:45S 31°33' W 101°09'0 0.0 19.8
2018-Jun-10 03:30S 31°33' W 101°09'1 1.6 19.8
2018-Jun-10 03:00S 31°32' W 101°10'1 2.4 19.8
2018-Jun-10 02:45S 31°33' W 101°10'0 0.0 19.8
2018-Jun-10 02:15S 31°33' W 101°10'0 0.0 19.8
2018-Jun-10 02:00S 31°33' W 101°10'0 0.0 19.8
2018-Jun-10 01:45S 31°33' W 101°10'2 1.6 19.8
2018-Jun-10 00:45S 31°32' W 101°08'0 0.0 19.9
2018-Jun-10 00:30S 31°32' W 101°08'0 0.0 19.8
2018-Jun-09 23:30S 31°32' W 101°08'2 7.8 19.9
2018-Jun-09 23:15S 31°31' W 101°06'0 0.0 19.9
2018-Jun-09 23:00S 31°31' W 101°06'0 0.0 19.9
2018-Jun-09 22:45S 31°31' W 101°06'0 0.0 19.8
2018-Jun-09 21:45S 31°31' W 101°06'0 0.0 19.9
2018-Jun-09 21:30S 31°31' W 101°06'1 0.2 19.9
2018-Jun-09 17:15S 31°32' W 101°05'0 0.0 19.9
2018-Jun-09 17:00S 31°32' W 101°05'1 1.1 19.9
2018-Jun-09 16:15S 31°31' W 101°06'1 3.2 19.9
2018-Jun-09 16:00S 31°32' W 101°05'0 0.0 19.9
2018-Jun-09 15:30S 31°32' W 101°05'1 4.1 19.9
2018-Jun-09 15:15S 31°32' W 101°04'0 0.0 19.9
2018-Jun-09 15:00S 31°32' W 101°04'0 0.0 19.9
2018-Jun-09 14:00S 31°32' W 101°04'1 2.4 19.9
2018-Jun-09 13:30S 31°31' W 101°03'0 0.0 19.9
2018-Jun-09 13:15S 31°31' W 101°03'0 0.0 19.9
2018-Jun-09 12:15S 31°31' W 101°03'0 0.0 19.9
2018-Jun-09 11:45S 31°31' W 101°03'0 0.0 19.9
2018-Jun-09 11:30S 31°31' W 101°03'1 1.6 19.9
2018-Jun-09 11:00S 31°32' W 101°04'0 0.0 19.9
2018-Jun-09 10:45S 31°32' W 101°04'1 0.2 19.9
2018-Jun-09 06:00S 31°31' W 101°04'0 0.0 19.9
2018-Jun-09 05:45S 31°31' W 101°04'   19.9
Track history (hours):
 
Tides and Currents Weather Stations Pressure Air Temp Water Temp Dewpoint Dewpoint Depression Visibility Wind Speed Wind Dir Waves Ship Positions

Drifting buoy 32912

Last reported at 2018-Jun-19 05:45 UTC. Time now 2018-Jun-19 06:47 UTC.
Position S 31°50' W 101°20'.

Water temperature 19.5 ° C

Date/timePositionNaut miles runAvg speedWind from/ knotsBaromVisibWave heightAir tempDewpointWater temp
2018-Jun-19 05:45S 31°50' W 101°20'0 0.0 19.5
2018-Jun-19 04:45S 31°50' W 101°20'0 0.0 19.5
2018-Jun-19 04:15S 31°50' W 101°20'0 0.0 19.5
2018-Jun-19 04:00S 31°50' W 101°20'1 2.0 19.5
2018-Jun-19 03:45S 31°50' W 101°19'1 4.1 19.6
2018-Jun-19 03:30S 31°50' W 101°18'1 3.1 19.5
2018-Jun-19 03:15S 31°49' W 101°19'1 3.1 19.6
2018-Jun-19 03:00S 31°50' W 101°19'1 1.0 19.5
2018-Jun-19 02:00S 31°50' W 101°18'0 0.0 19.6
2018-Jun-19 01:45S 31°50' W 101°18'1 0.8 19.6
2018-Jun-19 01:00S 31°50' W 101°18'0 0.0 19.6
2018-Jun-19 00:45S 31°50' W 101°18'0 0.0 19.6
2018-Jun-18 23:30S 31°50' W 101°18'1 3.1 19.6
2018-Jun-18 23:15S 31°50' W 101°17'1 3.1 19.6
2018-Jun-18 23:00S 31°50' W 101°18'1 0.6 19.6
2018-Jun-18 21:45S 31°50' W 101°17'0 0.0 19.6
2018-Jun-18 21:30S 31°50' W 101°17'4 0.9 19.6
2018-Jun-18 17:30S 31°52' W 101°14'0 0.0 19.7
2018-Jun-18 15:45S 31°52' W 101°14'0 0.0 19.7
2018-Jun-18 15:15S 31°52' W 101°14'0 0.0 19.7
2018-Jun-18 15:00S 31°52' W 101°14'1 2.4 19.7
2018-Jun-18 14:45S 31°52' W 101°14'1 0.5 19.7
2018-Jun-18 13:45S 31°52' W 101°14'1 4.7 19.7
2018-Jun-18 13:30S 31°52' W 101°13'0 0.0 19.7
2018-Jun-18 13:15S 31°52' W 101°13'2 1.3 19.7
2018-Jun-18 12:00S 31°53' W 101°12'1 2.4 19.7
2018-Jun-18 11:45S 31°52' W 101°12'1 0.8 19.8
2018-Jun-18 11:00S 31°53' W 101°12'0 0.0 19.8
2018-Jun-18 10:45S 31°53' W 101°12'1 0.3 19.8
2018-Jun-18 06:00S 31°54' W 101°12'0 0.0 19.8
2018-Jun-18 05:15S 31°54' W 101°12'0 0.0 19.8
2018-Jun-18 05:00S 31°54' W 101°12'0 0.0 19.8
2018-Jun-18 04:30S 31°54' W 101°12'0 0.0 19.8
2018-Jun-18 04:15S 31°54' W 101°12'1 1.0 19.8
2018-Jun-18 03:45S 31°54' W 101°11'1 5.2 19.8
2018-Jun-18 03:30S 31°53' W 101°11'2 6.3 19.8
2018-Jun-18 03:15S 31°54' W 101°12'1 1.0 19.8
2018-Jun-18 02:45S 31°54' W 101°11'0 0.0 19.8
2018-Jun-18 02:15S 31°54' W 101°11'1 2.0 19.8
2018-Jun-18 02:00S 31°54' W 101°12'0 0.0 19.8
2018-Jun-18 01:30S 31°54' W 101°12'0 0.0 19.8
2018-Jun-18 01:15S 31°54' W 101°12'0 0.0 19.8
2018-Jun-18 00:45S 31°54' W 101°12'0 0.0 19.8
2018-Jun-18 00:30S 31°54' W 101°12'1 1.4 19.8
2018-Jun-17 23:45S 31°54' W 101°11'1 4.1 19.9
2018-Jun-17 23:30S 31°54' W 101°12'0 0.0 19.8
2018-Jun-17 23:15S 31°54' W 101°12'0 0.0 19.8
2018-Jun-17 22:00S 31°54' W 101°12'310.2 19.9
2018-Jun-17 21:45S 31°54' W 101°09'0 0.0 19.9
2018-Jun-17 16:45S 31°54' W 101°09'0 0.0 19.8
2018-Jun-17 16:15S 31°54' W 101°09'0 0.0 19.9
2018-Jun-17 16:00S 31°54' W 101°09'1 1.0 19.8
2018-Jun-17 15:30S 31°54' W 101°10'0 0.0 19.8
2018-Jun-17 15:15S 31°54' W 101°10'0 0.0 19.8
2018-Jun-17 15:00S 31°54' W 101°10'1 1.0 19.8
2018-Jun-17 14:15S 31°55' W 101°09'0 0.0 19.9
2018-Jun-17 14:00S 31°55' W 101°09'1 3.1 19.9
2018-Jun-17 13:45S 31°54' W 101°10'0 0.0 19.8
2018-Jun-17 13:30S 31°54' W 101°10'1 1.2 19.8
2018-Jun-17 12:30S 31°55' W 101°08'0 0.0 19.8
2018-Jun-17 12:15S 31°55' W 101°08'0 0.0 19.9
2018-Jun-17 11:15S 31°55' W 101°08'0 0.0 19.9
2018-Jun-17 11:00S 31°55' W 101°08'0 0.0 19.9
2018-Jun-17 09:30S 31°55' W 101°08'0 0.0 19.9
2018-Jun-17 09:15S 31°55' W 101°08'0 0.0 19.9
2018-Jun-17 04:45S 31°55' W 101°08'1 0.7 20.0
2018-Jun-17 04:00S 31°55' W 101°09'1 4.7 20.0
2018-Jun-17 03:45S 31°54' W 101°08'0 0.0 20.0
2018-Jun-17 03:15S 31°54' W 101°08'0 0.0 20.0
2018-Jun-17 03:00S 31°54' W 101°08'0 0.0 20.0
2018-Jun-17 02:45S 31°54' W 101°08'0 0.0 20.0
2018-Jun-17 02:30S 31°54' W 101°08'0 0.0 20.0
2018-Jun-17 02:15S 31°54' W 101°08'0 0.0 20.0
2018-Jun-17 02:00S 31°54' W 101°08'0 0.0 20.0
2018-Jun-17 01:45S 31°54' W 101°08'0 0.0 20.0
2018-Jun-17 01:00S 31°54' W 101°08'0 0.0 20.0
2018-Jun-17 00:45S 31°54' W 101°08'1 1.0 20.0
2018-Jun-17 00:15S 31°54' W 101°07'0 0.0 20.0
2018-Jun-16 23:45S 31°54' W 101°07'0 0.0 20.0
2018-Jun-16 23:30S 31°54' W 101°07'1 0.7 20.0
2018-Jun-16 22:45S 31°54' W 101°07'0 0.0 20.0
2018-Jun-16 22:30S 31°54' W 101°07'1 2.4 20.0
2018-Jun-16 22:00S 31°55' W 101°05'0 0.0 20.0
2018-Jun-16 17:15S 31°55' W 101°05'0 0.0 20.1
2018-Jun-16 17:00S 31°55' W 101°05'1 1.0 20.0
2018-Jun-16 16:30S 31°55' W 101°05'0 0.0 20.1
2018-Jun-16 16:15S 31°55' W 101°05'1 0.5 20.0
2018-Jun-16 14:45S 31°55' W 101°05'0 0.0 20.0
2018-Jun-16 14:15S 31°55' W 101°05'2 4.1 20.0
2018-Jun-16 13:45S 31°53' W 101°07'0 0.0 20.0
2018-Jun-16 13:00S 31°53' W 101°07'0 0.0 20.0
2018-Jun-16 12:45S 31°53' W 101°07'0 0.0 20.0
2018-Jun-16 12:30S 31°53' W 101°07'1 1.0 20.0
2018-Jun-16 11:30S 31°53' W 101°05'0 0.0 20.0
2018-Jun-16 11:15S 31°53' W 101°05'1 4.1 20.0
2018-Jun-16 11:00S 31°53' W 101°07'0 0.0 20.0
2018-Jun-16 09:45S 31°53' W 101°07'0 0.0 20.0
2018-Jun-16 09:30S 31°53' W 101°07'1 0.3 20.0
2018-Jun-16 05:45S 31°53' W 101°05'0 0.0 20.0
2018-Jun-16 05:15S 31°53' W 101°05'0 0.0 20.0
2018-Jun-16 05:00S 31°53' W 101°05'1 1.4 20.0
2018-Jun-16 04:15S 31°53' W 101°07'1 2.0 20.0
2018-Jun-16 04:00S 31°53' W 101°06'0 0.0 20.0
2018-Jun-16 03:30S 31°53' W 101°06'1 2.0 20.0
2018-Jun-16 03:15S 31°53' W 101°07'0 0.0 20.0
2018-Jun-16 03:00S 31°53' W 101°07'0 0.0 20.0
2018-Jun-16 02:30S 31°53' W 101°07'0 0.0 20.0
2018-Jun-16 02:15S 31°53' W 101°07'0 0.0 20.0
2018-Jun-16 01:30S 31°53' W 101°07'0 0.0 20.0
2018-Jun-16 01:15S 31°53' W 101°07'1 1.0 20.0
2018-Jun-16 00:45S 31°53' W 101°06'0 0.0 20.0
2018-Jun-16 00:00S 31°53' W 101°06'1 2.0 20.0
2018-Jun-15 23:45S 31°53' W 101°07'0 0.0 20.1
2018-Jun-15 23:15S 31°53' W 101°07'0 0.0 20.1
2018-Jun-15 23:00S 31°53' W 101°07'0 0.0 20.1
2018-Jun-15 22:15S 31°53' W 101°07'1 2.0 20.1
2018-Jun-15 22:00S 31°53' W 101°07'1 0.1 20.1
2018-Jun-15 16:45S 31°53' W 101°07'2 2.1 20.0
2018-Jun-15 15:45S 31°52' W 101°09'0 0.0 20.0
2018-Jun-15 15:15S 31°52' W 101°09'0 0.0 20.0
2018-Jun-15 15:00S 31°52' W 101°09'1 1.0 20.0
2018-Jun-15 14:15S 31°53' W 101°10'0 0.0 20.0
2018-Jun-15 14:00S 31°53' W 101°10'0 0.0 20.0
2018-Jun-15 13:45S 31°53' W 101°10'0 0.0 20.0
2018-Jun-15 13:30S 31°53' W 101°10'1 2.4 20.0
2018-Jun-15 13:00S 31°52' W 101°08'0 0.0 20.0
2018-Jun-15 12:30S 31°52' W 101°08'0 0.0 20.0
2018-Jun-15 12:15S 31°52' W 101°08'1 2.0 20.0
2018-Jun-15 12:00S 31°52' W 101°09'0 0.0 20.0
2018-Jun-15 11:45S 31°52' W 101°09'0 0.0 20.0
2018-Jun-15 11:30S 31°52' W 101°09'0 0.0 20.0
2018-Jun-15 11:15S 31°52' W 101°09'1 0.5 20.0
2018-Jun-15 09:45S 31°52' W 101°10'1 0.1 20.0
2018-Jun-15 06:15S 31°52' W 101°09'0 0.0 20.0
2018-Jun-15 06:00S 31°52' W 101°09'0 0.0 20.0
2018-Jun-15 05:30S 31°52' W 101°09'1 0.5 20.0
2018-Jun-15 04:30S 31°52' W 101°10'0 0.0 20.0
2018-Jun-15 04:15S 31°52' W 101°10'1 2.0 20.0
2018-Jun-15 04:00S 31°52' W 101°10'0 0.0 20.0
2018-Jun-15 03:45S 31°52' W 101°10'1 2.0 20.0
2018-Jun-15 03:30S 31°52' W 101°10'0 0.0 20.0
2018-Jun-15 02:45S 31°52' W 101°10'0 0.0 20.0
2018-Jun-15 02:30S 31°52' W 101°10'1 1.0 20.0
2018-Jun-15 02:00S 31°52' W 101°10'0 0.0 20.0
2018-Jun-15 01:45S 31°52' W 101°10'0 0.0 20.0
2018-Jun-15 01:15S 31°52' W 101°10'0 0.0 20.0
2018-Jun-15 00:15S 31°52' W 101°10'0 0.0 20.0
2018-Jun-15 00:00S 31°52' W 101°10'1 4.7 20.0
2018-Jun-14 23:45S 31°51' W 101°11'0 0.0 20.0
2018-Jun-14 23:30S 31°51' W 101°11'0 0.0 20.0
2018-Jun-14 22:30S 31°51' W 101°11'1 2.0 20.0
2018-Jun-14 22:15S 31°51' W 101°12'0 0.0 20.0
2018-Jun-14 17:15S 31°51' W 101°12'0 0.0 19.9
2018-Jun-14 17:00S 31°51' W 101°12'0 0.0 19.9
2018-Jun-14 16:15S 31°51' W 101°12'0 0.0 19.9
2018-Jun-14 16:00S 31°51' W 101°12'0 0.0 19.9
2018-Jun-14 15:30S 31°51' W 101°12'0 0.0 19.9
2018-Jun-14 15:15S 31°51' W 101°12'0 0.0 19.9
2018-Jun-14 14:15S 31°51' W 101°12'0 0.0 19.9
2018-Jun-14 14:00S 31°51' W 101°12'0 0.0 19.9
2018-Jun-14 13:30S 31°51' W 101°12'0 0.0 19.9
2018-Jun-14 13:15S 31°51' W 101°12'1 1.0 19.9
2018-Jun-14 12:30S 31°50' W 101°11'0 0.0 19.9
2018-Jun-14 12:15S 31°50' W 101°11'1 4.7 19.9
2018-Jun-14 12:00S 31°51' W 101°13'1 2.0 19.9
2018-Jun-14 11:45S 31°51' W 101°12'0 0.0 19.9
2018-Jun-14 11:30S 31°51' W 101°12'1 0.8 19.9
2018-Jun-14 10:00S 31°50' W 101°13'1 2.4 19.9
2018-Jun-14 09:45S 31°50' W 101°13'1 0.2 19.9
2018-Jun-14 05:45S 31°50' W 101°14'0 0.0 20.0
2018-Jun-14 05:00S 31°50' W 101°14'0 0.0 20.0
2018-Jun-14 04:45S 31°50' W 101°14'1 2.4 20.0
2018-Jun-14 04:30S 31°50' W 101°14'0 0.0 20.0
2018-Jun-14 04:15S 31°50' W 101°14'0 0.0 20.0
2018-Jun-14 04:00S 31°50' W 101°14'0 0.0 20.0
2018-Jun-14 03:15S 31°50' W 101°14'0 0.0 20.0
2018-Jun-14 03:00S 31°50' W 101°14'0 0.0 20.0
2018-Jun-14 02:45S 31°50' W 101°14'0 0.0 20.0
2018-Jun-14 02:15S 31°50' W 101°14'0 0.0 20.0
2018-Jun-14 01:45S 31°50' W 101°14'0 0.0 20.0
2018-Jun-14 01:15S 31°50' W 101°14'1 0.7 20.0
2018-Jun-14 00:30S 31°50' W 101°14'1 2.0 20.0
2018-Jun-14 00:15S 31°50' W 101°14'0 0.0 20.0
2018-Jun-14 00:00S 31°50' W 101°14'0 0.0 20.0
2018-Jun-13 22:45S 31°50' W 101°14'2 7.8 20.0
2018-Jun-13 22:30S 31°49' W 101°16'1 0.2 20.0
2018-Jun-13 17:30S 31°49' W 101°17'0 0.0 19.9
2018-Jun-13 15:45S 31°49' W 101°17'3 3.5 19.9
2018-Jun-13 15:00S 31°49' W 101°14'0 0.0 19.9
2018-Jun-13 14:30S 31°49' W 101°14'0 0.0 19.9
2018-Jun-13 14:15S 31°49' W 101°14'0 0.0 19.9
2018-Jun-13 14:00S 31°49' W 101°14'0 0.0 19.9
2018-Jun-13 13:45S 31°49' W 101°14'2 2.8 19.9
2018-Jun-13 13:00S 31°49' W 101°16'0 0.0 19.9
2018-Jun-13 12:45S 31°49' W 101°16'0 0.0 19.9
2018-Jun-13 12:15S 31°49' W 101°16'0 0.0 19.9
2018-Jun-13 11:45S 31°49' W 101°16'0 0.0 19.9
2018-Jun-13 11:15S 31°49' W 101°16'0 0.0 19.9
2018-Jun-13 10:15S 31°49' W 101°16'0 0.0 19.9
2018-Jun-13 10:00S 31°49' W 101°16'0 0.0 19.9
2018-Jun-13 08:30S 31°49' W 101°16'0 0.0 19.9
2018-Jun-13 06:15S 31°49' W 101°16'0 0.0 19.9
2018-Jun-13 06:00S 31°49' W 101°16'0 0.0 19.9
2018-Jun-13 05:15S 31°49' W 101°16'2 6.6 19.9
2018-Jun-13 05:00S 31°48' W 101°14'1 2.0 19.9
2018-Jun-13 04:45S 31°48' W 101°15'0 0.0 19.9
2018-Jun-13 04:30S 31°48' W 101°15'0 0.0 19.9
2018-Jun-13 03:30S 31°48' W 101°15'0 0.0 19.9
2018-Jun-13 03:15S 31°48' W 101°15'0 0.0 19.9
2018-Jun-13 02:45S 31°48' W 101°15'0 0.0 19.9
2018-Jun-13 02:30S 31°48' W 101°15'0 0.0 19.9
2018-Jun-13 01:00S 31°48' W 101°15'1 4.1 19.9
2018-Jun-13 00:45S 31°48' W 101°16'1 3.1 19.9
2018-Jun-13 00:30S 31°49' W 101°16'0 0.0 19.9
2018-Jun-13 00:15S 31°49' W 101°16'1 0.6 19.9
2018-Jun-12 23:00S 31°48' W 101°16'2 9.4 20.0
2018-Jun-12 22:45S 31°46' W 101°18'0 0.0 19.9
2018-Jun-12 17:00S 31°46' W 101°18'2 6.6 19.9
2018-Jun-12 16:45S 31°47' W 101°16'0 0.0 19.9
2018-Jun-12 16:15S 31°47' W 101°16'0 0.0 19.9
2018-Jun-12 16:00S 31°47' W 101°16'0 0.0 19.9
2018-Jun-12 15:15S 31°47' W 101°16'0 0.0 19.9
2018-Jun-12 15:00S 31°47' W 101°16'0 0.0 19.9
2018-Jun-12 14:45S 31°47' W 101°16'1 2.0 19.9
2018-Jun-12 14:30S 31°47' W 101°17'0 0.0 19.9
2018-Jun-12 14:15S 31°47' W 101°17'1 1.0 19.9
2018-Jun-12 13:30S 31°47' W 101°17'0 0.0 19.9
2018-Jun-12 13:15S 31°47' W 101°17'1 4.7 19.9
2018-Jun-12 13:00S 31°47' W 101°16'1 4.1 19.9
2018-Jun-12 12:45S 31°47' W 101°17'0 0.0 19.9
2018-Jun-12 12:30S 31°47' W 101°17'2 2.4 19.9
2018-Jun-12 11:45S 31°45' W 101°17'0 0.0 19.9
2018-Jun-12 11:00S 31°45' W 101°17'0 0.0 19.9
2018-Jun-12 10:30S 31°45' W 101°17'0 0.0 19.9
2018-Jun-12 10:15S 31°45' W 101°17'0 0.0 19.9
2018-Jun-12 08:45S 31°45' W 101°17'1 0.3 19.8
2018-Jun-12 05:30S 31°45' W 101°16'0 0.0 19.8
2018-Jun-12 05:00S 31°45' W 101°16'0 0.0 19.8
2018-Jun-12 04:45S 31°45' W 101°16'1 0.7 19.8
2018-Jun-12 04:00S 31°45' W 101°16'0 0.0 19.8
2018-Jun-12 03:45S 31°45' W 101°16'0 0.0 19.8
2018-Jun-12 03:15S 31°45' W 101°16'1 3.2 19.8
2018-Jun-12 03:00S 31°44' W 101°16'0 0.0 19.8
2018-Jun-12 01:30S 31°44' W 101°16'1 3.2 19.8
2018-Jun-12 01:15S 31°44' W 101°17'0 0.0 19.8
2018-Jun-12 01:00S 31°44' W 101°17'0 0.0 19.8
2018-Jun-12 00:45S 31°44' W 101°17'0 0.0 19.8
2018-Jun-12 00:30S 31°44' W 101°17'0 0.0 19.8
2018-Jun-11 23:30S 31°44' W 101°17'0 0.0 19.8
2018-Jun-11 23:00S 31°44' W 101°17'2 1.0 19.8
2018-Jun-11 21:15S 31°42' W 101°17'0 0.0 19.8
2018-Jun-11 17:15S 31°42' W 101°17'0 0.0 19.8
2018-Jun-11 17:00S 31°42' W 101°17'0 0.0 19.8
2018-Jun-11 16:30S 31°42' W 101°17'1 3.2 19.8
2018-Jun-11 16:15S 31°41' W 101°17'0 0.0 19.8
2018-Jun-11 15:00S 31°41' W 101°17'0 0.0 19.8
2018-Jun-11 14:45S 31°41' W 101°17'1 1.6 19.8
2018-Jun-11 14:00S 31°42' W 101°19'0 0.0 19.8
2018-Jun-11 13:45S 31°42' W 101°19'2 3.9 19.8
2018-Jun-11 13:15S 31°41' W 101°17'0 0.0 19.8
2018-Jun-11 13:00S 31°41' W 101°17'2 4.1 19.8
2018-Jun-11 12:30S 31°41' W 101°14'0 0.0 19.8
2018-Jun-11 12:15S 31°41' W 101°14'2 0.5 19.8
2018-Jun-11 09:00S 31°40' W 101°16'0 0.0 19.8
2018-Jun-11 08:45S 31°40' W 101°16'2 0.6 19.8
2018-Jun-11 06:00S 31°39' W 101°15'0 0.0 19.8
2018-Jun-11 05:45S 31°39' W 101°15'0 0.0 19.8
2018-Jun-11 05:15S 31°39' W 101°15'0 0.0 19.8
2018-Jun-11 05:00S 31°39' W 101°15'0 0.0 19.8
2018-Jun-11 04:15S 31°39' W 101°15'0 0.0 19.8
2018-Jun-11 04:00S 31°39' W 101°15'0 0.0 19.8
2018-Jun-11 03:30S 31°39' W 101°15'0 0.0 19.8
2018-Jun-11 03:15S 31°39' W 101°15'1 0.8 19.8
2018-Jun-11 02:30S 31°38' W 101°15'0 0.0 19.8
2018-Jun-11 02:00S 31°38' W 101°15'2 7.8 19.8
2018-Jun-11 01:45S 31°37' W 101°13'0 0.0 19.8
2018-Jun-11 01:30S 31°37' W 101°13'0 0.0 19.8
2018-Jun-11 00:45S 31°37' W 101°13'0 0.0 19.8
2018-Jun-11 00:00S 31°37' W 101°13'0 0.0 19.8
2018-Jun-10 23:15S 31°37' W 101°13'2 8.3 19.8
2018-Jun-10 23:00S 31°35' W 101°12'0 0.0 19.8
2018-Jun-10 22:30S 31°35' W 101°12'0 0.0 19.8
2018-Jun-10 22:15S 31°35' W 101°12'0 0.0 19.8
2018-Jun-10 21:30S 31°35' W 101°12'0 0.0 19.8
2018-Jun-10 17:00S 31°35' W 101°12'0 0.0 19.8
2018-Jun-10 16:45S 31°35' W 101°12'0 0.0 19.8
2018-Jun-10 16:00S 31°35' W 101°12'0 0.0 19.8
2018-Jun-10 15:45S 31°35' W 101°12'0 0.0 19.8
2018-Jun-10 15:15S 31°35' W 101°12'0 0.0 19.8
2018-Jun-10 15:00S 31°35' W 101°12'1 1.6 19.8
2018-Jun-10 14:30S 31°35' W 101°11'0 0.0 19.8
2018-Jun-10 14:15S 31°35' W 101°11'0 0.0 19.8
2018-Jun-10 14:00S 31°35' W 101°11'0 0.0 19.8
2018-Jun-10 13:30S 31°35' W 101°11'0 0.0 19.8
2018-Jun-10 13:15S 31°35' W 101°11'1 2.0 19.8
2018-Jun-10 13:00S 31°35' W 101°11'0 0.0 19.8
2018-Jun-10 12:45S 31°35' W 101°11'0 0.0 19.8
2018-Jun-10 11:45S 31°35' W 101°11'0 0.0 19.8
2018-Jun-10 11:15S 31°35' W 101°11'0 0.0 19.8
2018-Jun-10 10:45S 31°35' W 101°11'0 0.0 19.8
2018-Jun-10 10:30S 31°35' W 101°11'2 1.1 19.8
2018-Jun-10 09:00S 31°34' W 101°10'0 0.0 19.8
2018-Jun-10 05:30S 31°34' W 101°10'0 0.0 19.8
2018-Jun-10 04:45S 31°34' W 101°10'0 0.0 19.8
2018-Jun-10 04:30S 31°34' W 101°10'0 0.0 19.8
2018-Jun-10 04:00S 31°34' W 101°10'1 3.2 19.8
2018-Jun-10 03:45S 31°33' W 101°09'0 0.0 19.8
2018-Jun-10 03:30S 31°33' W 101°09'1 1.6 19.8
2018-Jun-10 03:00S 31°32' W 101°10'1 2.4 19.8
2018-Jun-10 02:45S 31°33' W 101°10'0 0.0 19.8
2018-Jun-10 02:15S 31°33' W 101°10'0 0.0 19.8
2018-Jun-10 02:00S 31°33' W 101°10'0 0.0 19.8
2018-Jun-10 01:45S 31°33' W 101°10'2 1.6 19.8
2018-Jun-10 00:45S 31°32' W 101°08'0 0.0 19.9
2018-Jun-10 00:30S 31°32' W 101°08'0 0.0 19.8
2018-Jun-09 23:30S 31°32' W 101°08'2 7.8 19.9
2018-Jun-09 23:15S 31°31' W 101°06'0 0.0 19.9
2018-Jun-09 23:00S 31°31' W 101°06'0 0.0 19.9
2018-Jun-09 22:45S 31°31' W 101°06'0 0.0 19.8
2018-Jun-09 21:45S 31°31' W 101°06'0 0.0 19.9
2018-Jun-09 21:30S 31°31' W 101°06'1 0.2 19.9
2018-Jun-09 17:15S 31°32' W 101°05'0 0.0 19.9
2018-Jun-09 17:00S 31°32' W 101°05'1 1.1 19.9
2018-Jun-09 16:15S 31°31' W 101°06'1 3.2 19.9
2018-Jun-09 16:00S 31°32' W 101°05'0 0.0 19.9
2018-Jun-09 15:30S 31°32' W 101°05'1 4.1 19.9
2018-Jun-09 15:15S 31°32' W 101°04'0 0.0 19.9
2018-Jun-09 15:00S 31°32' W 101°04'0 0.0 19.9
2018-Jun-09 14:00S 31°32' W 101°04'1 2.4 19.9
2018-Jun-09 13:30S 31°31' W 101°03'0 0.0 19.9
2018-Jun-09 13:15S 31°31' W 101°03'0 0.0 19.9
2018-Jun-09 12:15S 31°31' W 101°03'0 0.0 19.9
2018-Jun-09 11:45S 31°31' W 101°03'0 0.0 19.9
2018-Jun-09 11:30S 31°31' W 101°03'1 1.6 19.9
2018-Jun-09 11:00S 31°32' W 101°04'0 0.0 19.9
2018-Jun-09 10:45S 31°32' W 101°04'1 0.2 19.9
2018-Jun-09 06:00S 31°31' W 101°04'0 0.0 19.9
2018-Jun-09 05:45S 31°31' W 101°04'   19.9

Dump ship's entire track history